KCEW/CEW METAR and TAF weather

Enter ICAO airport designator
Station Type Date Time Source
KCEW METAR 2018/04/19 13:06 UTC NOAA

KCEW 191306Z AUTO 29007KT 10SM BKN012 BKN055 19/17 A3010 RMK AO2 T01940172


Station Type Date Time Source
KCEW Decoded METAR 2018/04/19 13:06 UTC NOAA

CRESTVIEW SIKES AIRPORT, FL, United States (KCEW) 30-46N 086-31W 55M
Apr 19, 2018 - 09:06 AM EDT / 2018.04.19 1306 UTC
Wind: from the WNW (290 degrees) at 8 MPH (7 KT):0
Visibility: 10 mile(s):0
Sky conditions: mostly cloudy
Temperature: 66.9 F (19.4 C)
Dew Point: 63.0 F (17.2 C)
Relative Humidity: 87%
Pressure (altimeter): 30.1 in. Hg (1019 hPa)
ob: KCEW 191306Z AUTO 29007KT 10SM BKN012 BKN055 19/17 A3010 RMK AO2 T01940172
cycle: 13

Station Type Date Time Source
KCEW TAF UTC NOAA

Error!


Example: see airport list